Time;durP1;ratioP1;P1;durP2;ratioP2;P2;SDS_P1;SDS_P2;PMS_P1;PMS_P2;Temp;Humidity;BMP_temperature;BMP_pressure;BME280_temperature;BME280_humidity;BME280_pressure;Samples;Min_cycle;Max_cycle;Signal;HPM_P1;HPM_P2
2022/07/29 00:01:43;;;;;;;0.40;0.40;;;;;;;21.82;100.00;95402.81;5074321;28;20425;-56
2022/07/29 00:04:12;;;;;;;0.50;0.30;;;;;;;21.93;100.00;95403.19;5074600;28;20506;-56
2022/07/29 00:06:41;;;;;;;1.80;0.97;;;;;;;21.40;100.00;95310.53;5074510;28;20443;-56
2022/07/29 00:09:10;;;;;;;1.00;0.43;;;;;;;21.67;100.00;95387.31;5074222;28;20469;-56
2022/07/29 00:11:38;;;;;;;1.00;0.77;;;;;;;21.76;100.00;95395.28;5073762;28;20508;-56
2022/07/29 00:14:07;;;;;;;0.70;0.70;;;;;;;21.94;100.00;95388.53;5074173;28;20437;-56
2022/07/29 00:16:35;;;;;;;1.27;0.87;;;;;;;21.51;100.00;95340.53;5073910;28;20492;-56
2022/07/29 00:19:06;;;;;;;0.57;0.43;;;;;;;22.12;100.00;95390.66;5073965;28;20837;-57
2022/07/29 00:21:35;;;;;;;0.80;0.73;;;;;;;22.15;100.00;95383.81;5074056;28;20424;-57
2022/07/29 00:24:03;;;;;;;0.60;0.60;;;;;;;21.96;100.00;95373.59;5073890;28;20941;-57
2022/07/29 00:26:32;;;;;;;1.03;1.03;;;;;;;21.59;100.00;95379.31;5073524;28;20509;-56
2022/07/29 00:29:01;;;;;;;1.23;1.13;;;;;;;21.42;100.00;95377.63;5073834;28;20425;-56
2022/07/29 00:31:50;;;;;;;1.10;1.10;;;;;;;21.04;100.00;95385.97;5073746;28;20445;-56
2022/07/29 00:37:05;;;;;;;0.83;0.80;;;;;;;21.21;100.00;95377.72;5073505;28;20580;-56
2022/07/29 00:39:35;;;;;;;0.70;0.60;;;;;;;21.16;100.00;95369.84;5073644;28;20768;-57
2022/07/29 00:42:05;;;;;;;1.10;1.00;;;;;;;21.25;100.00;95367.81;5073848;28;21051;-57
2022/07/29 00:44:38;;;;;;;0.80;0.80;;;;;;;21.49;100.00;95362.47;5073545;28;20495;-56
2022/07/29 00:47:06;;;;;;;0.50;0.40;;;;;;;21.53;100.00;95376.03;5073508;28;20972;-56
2022/07/29 00:49:37;;;;;;;0.80;0.70;;;;;;;20.89;100.00;95295.00;5073467;28;20475;-56
2022/07/29 00:52:07;;;;;;;0.50;0.40;;;;;;;20.74;100.00;95298.34;5073393;28;20517;-56
2022/07/29 00:54:36;;;;;;;1.57;1.47;;;;;;;21.06;100.00;95380.25;5073666;28;20453;-56
2022/07/29 00:57:12;;;;;;;0.50;0.40;;;;;;;21.24;100.00;95368.16;5073461;28;20468;-56
2022/07/29 00:59:41;;;;;;;7.50;0.80;;;;;;;21.49;100.00;95367.84;5073230;28;20922;-56
2022/07/29 01:02:09;;;;;;;5.23;0.87;;;;;;;21.40;100.00;95364.47;5073132;28;20926;-56
2022/07/29 01:04:40;;;;;;;2.13;2.03;;;;;;;20.98;100.00;95286.78;5072835;28;20460;-56
2022/07/29 01:07:09;;;;;;;0.60;0.50;;;;;;;21.48;100.00;95360.88;5072785;28;21020;-56
2022/07/29 01:09:38;;;;;;;0.57;0.47;;;;;;;21.18;100.00;95323.66;5072990;28;20418;-57
2022/07/29 01:12:17;;;;;;;1.33;0.63;;;;;;;21.19;100.00;95363.78;5073290;28;20772;-57
2022/07/29 01:14:47;;;;;;;2.60;1.83;;;;;;;21.09;100.00;95368.81;5072920;28;20528;-57
2022/07/29 01:17:22;;;;;;;0.50;0.30;;;;;;;21.15;100.00;95362.88;5072615;28;20575;-56
2022/07/29 01:19:59;;;;;;;0.67;0.63;;;;;;;21.32;100.00;95354.59;5072542;28;20847;-56
2022/07/29 01:22:54;;;;;;;1.17;1.17;;;;;;;21.65;100.00;95359.88;5072615;28;20456;-56
2022/07/29 01:25:46;;;;;;;0.80;0.70;;;;;;;21.64;100.00;95361.00;5072899;28;20512;-56
2022/07/29 01:28:46;;;;;;;1.53;1.43;;;;;;;21.43;100.00;95355.72;5072459;28;20437;-57
2022/07/29 01:31:19;;;;;;;0.50;0.47;;;;;;;21.82;100.00;95366.94;5072632;28;20449;-56
2022/07/29 01:33:59;;;;;;;0.80;0.73;;;;;;;21.50;100.00;95331.66;5072570;28;20429;-56
2022/07/29 01:36:31;;;;;;;0.70;0.70;;;;;;;21.83;100.00;95363.13;5072760;28;20547;-56
2022/07/29 01:39:06;;;;;;;3.17;0.60;;;;;;;21.77;100.00;95362.56;5071211;28;20520;-56
2022/07/29 01:41:37;;;;;;;0.40;0.30;;;;;;;21.76;100.00;95317.81;5072695;28;20432;-56
2022/07/29 01:44:14;;;;;;;0.60;0.60;;;;;;;22.30;100.00;95361.50;5072309;28;20810;-57
2022/07/29 01:46:53;;;;;;;0.50;0.30;;;;;;;22.26;100.00;95303.91;5072842;28;20484;-57
2022/07/29 01:49:25;;;;;;;0.50;0.30;;;;;;;22.61;100.00;95361.63;5072205;28;20456;-57
2022/07/29 01:51:57;;;;;;;0.40;0.30;;;;;;;22.12;100.00;95360.19;5072548;28;20468;-57
2022/07/29 01:54:31;;;;;;;2.93;0.40;;;;;;;22.13;100.00;95359.84;5072164;28;20468;-57
2022/07/29 01:57:01;;;;;;;1.47;0.90;;;;;;;22.41;100.00;95365.28;5072036;28;20507;-57
2022/07/29 01:59:34;;;;;;;0.50;0.50;;;;;;;22.52;100.00;95362.88;5072420;28;20544;-56
2022/07/29 02:02:03;;;;;;;0.40;0.30;;;;;;;22.77;100.00;95362.47;5072421;28;20421;-56
2022/07/29 02:04:36;;;;;;;0.50;0.40;;;;;;;22.13;100.00;95365.25;5072082;28;20437;-57
2022/07/29 02:07:08;;;;;;;1.53;1.43;;;;;;;21.45;100.00;95355.38;5072040;28;20426;-56
2022/07/29 02:09:40;;;;;;;0.80;0.77;;;;;;;21.71;100.00;95355.03;5072043;28;20829;-56
2022/07/29 02:12:10;;;;;;;0.60;0.60;;;;;;;22.20;100.00;95364.66;5072317;28;20425;-56
2022/07/29 02:14:50;;;;;;;0.50;0.37;;;;;;;22.44;100.00;95361.88;5072010;28;20471;-56
2022/07/29 02:17:23;;;;;;;8.40;1.03;;;;;;;22.58;100.00;95369.63;5071719;28;20519;-56
2022/07/29 02:19:55;;;;;;;0.40;0.30;;;;;;;22.25;100.00;95307.72;5071892;28;20500;-56
2022/07/29 02:22:25;;;;;;;0.97;0.40;;;;;;;22.40;100.00;95358.31;5072065;28;20461;-56
2022/07/29 02:24:54;;;;;;;0.50;0.47;;;;;;;22.13;100.00;95367.97;5072191;28;20916;-56
2022/07/29 02:27:24;;;;;;;0.57;0.40;;;;;;;22.36;100.00;95370.16;5072078;28;20508;-56
2022/07/29 02:29:55;;;;;;;0.50;0.40;;;;;;;22.51;100.00;95370.22;5071884;28;20941;-56
2022/07/29 02:32:27;;;;;;;0.50;0.50;;;;;;;22.59;100.00;95371.97;5071292;28;20473;-57
2022/07/29 02:34:56;;;;;;;0.40;0.30;;;;;;;22.62;100.00;95357.00;5071943;28;20456;-56
2022/07/29 02:37:27;;;;;;;0.60;0.43;;;;;;;22.64;100.00;95360.94;5071953;28;20465;-57
2022/07/29 02:39:58;;;;;;;1.23;1.13;;;;;;;22.36;100.00;95362.84;5071704;28;20520;-56
2022/07/29 02:42:28;;;;;;;0.77;0.57;;;;;;;22.21;100.00;95366.25;5072262;28;20464;-57
2022/07/29 02:44:58;;;;;;;0.50;0.47;;;;;;;22.32;100.00;95366.53;5072080;28;20452;-57
2022/07/29 02:47:34;;;;;;;0.63;0.40;;;;;;;21.93;100.00;95371.59;5071674;28;20437;-57
2022/07/29 02:50:14;;;;;;;1.07;1.00;;;;;;;20.97;100.00;95363.38;5073295;28;21009;-57
2022/07/29 02:52:46;;;;;;;2.20;0.70;;;;;;;21.01;100.00;95362.38;5075720;28;20528;-57
2022/07/29 02:55:19;;;;;;;1.23;1.13;;;;;;;20.94;100.00;95367.53;5075650;28;20433;-58
2022/07/29 02:57:51;;;;;;;0.80;0.80;;;;;;;20.70;100.00;95370.91;5075107;28;20508;-57
2022/07/29 03:00:28;;;;;;;1.10;1.00;;;;;;;20.15;100.00;95295.06;5075169;28;20424;-57
2022/07/29 03:02:59;;;;;;;0.40;0.30;;;;;;;20.42;100.00;95361.03;5075778;28;20429;-57
2022/07/29 03:05:28;;;;;;;1.20;1.10;;;;;;;20.27;100.00;95363.22;5075344;28;20512;-57
2022/07/29 03:07:59;;;;;;;4.67;1.07;;;;;;;20.14;100.00;95356.16;5075221;28;20456;-57
2022/07/29 03:10:29;;;;;;;5.20;0.80;;;;;;;20.10;100.00;95366.03;5075492;28;20464;-57
2022/07/29 03:12:58;;;;;;;0.80;0.80;;;;;;;20.03;100.00;95367.66;5075064;28;20517;-57
2022/07/29 03:15:29;;;;;;;1.67;1.00;;;;;;;20.12;100.00;95336.88;5075256;28;20512;-57
2022/07/29 03:17:59;;;;;;;1.13;1.10;;;;;;;20.30;100.00;95374.44;5074907;28;20484;-57
2022/07/29 03:20:27;;;;;;;1.03;1.03;;;;;;;20.22;100.00;95363.38;5075307;28;20417;-57
2022/07/29 03:22:56;;;;;;;3.50;1.00;;;;;;;20.53;100.00;95368.41;5074737;28;20512;-57
2022/07/29 03:25:24;;;;;;;0.90;0.67;;;;;;;20.19;100.00;95326.38;5074556;28;20465;-57
2022/07/29 03:27:53;;;;;;;1.20;0.80;;;;;;;20.66;100.00;95383.50;5074781;28;20520;-57
2022/07/29 03:30:21;;;;;;;0.70;0.53;;;;;;;21.20;100.00;95383.44;5074707;28;20519;-57
2022/07/29 03:32:52;;;;;;;1.77;0.60;;;;;;;21.71;100.00;95384.69;5075002;28;20944;-53
2022/07/29 03:35:21;;;;;;;0.97;0.97;;;;;;;22.01;100.00;95378.75;5074936;28;20440;-52
2022/07/29 03:37:50;;;;;;;1.23;1.13;;;;;;;22.07;100.00;95384.72;5074414;28;20503;-53
2022/07/29 03:40:23;;;;;;;0.50;0.40;;;;;;;22.13;100.00;95376.06;5074614;28;20520;-54
2022/07/29 03:42:55;;;;;;;1.27;0.53;;;;;;;22.44;100.00;95386.19;5074848;28;20445;-54
2022/07/29 03:45:25;;;;;;;0.67;0.50;;;;;;;22.72;100.00;95384.31;5074795;28;20460;-54
2022/07/29 03:48:00;;;;;;;3.43;0.40;;;;;;;22.89;100.00;95382.47;5074371;28;20570;-54
2022/07/29 03:50:31;;;;;;;0.70;0.67;;;;;;;21.95;100.00;95355.03;5074478;28;20503;-54
2022/07/29 03:53:01;;;;;;;0.50;0.40;;;;;;;22.53;100.00;95388.75;5074359;28;20435;-54
2022/07/29 03:55:33;;;;;;;0.90;0.90;;;;;;;22.86;100.00;95388.56;5074177;28;20940;-53
2022/07/29 03:58:02;;;;;;;2.90;1.13;;;;;;;22.42;100.00;95383.06;5074193;28;20564;-53
2022/07/29 04:00:33;;;;;;;0.60;0.60;;;;;;;22.92;100.00;95392.59;5074666;28;20418;-54
2022/07/29 04:03:04;;;;;;;0.60;0.40;;;;;;;23.04;100.00;95393.31;5073524;28;20444;-54
2022/07/29 04:05:38;;;;;;;0.70;0.70;;;;;;;22.19;100.00;95394.72;5073749;28;20448;-54
2022/07/29 04:08:07;;;;;;;1.80;1.57;;;;;;;22.06;100.00;95404.75;5073903;28;20429;-54
2022/07/29 04:10:36;;;;;;;0.90;0.90;;;;;;;22.18;100.00;95399.31;5074129;28;20453;-54
2022/07/29 04:13:06;;;;;;;0.40;0.40;;;;;;;22.57;100.00;95395.03;5073885;28;20429;-54
2022/07/29 04:15:34;;;;;;;0.83;0.70;;;;;;;22.74;100.00;95398.28;5073537;28;20487;-54
2022/07/29 04:18:05;;;;;;;0.50;0.40;;;;;;;22.85;100.00;95406.69;5073732;28;20491;-54
2022/07/29 04:20:34;;;;;;;0.80;0.33;;;;;;;22.43;100.00;95403.53;5073834;28;20425;-54
2022/07/29 04:23:02;;;;;;;1.13;1.07;;;;;;;22.10;100.00;95405.63;5073862;28;20456;-54
2022/07/29 04:25:30;;;;;;;0.40;0.30;;;;;;;21.87;100.00;95416.09;5074073;28;20604;-54
2022/07/29 04:28:02;;;;;;;0.90;0.60;;;;;;;22.40;100.00;95406.13;5073665;28;20870;-54
2022/07/29 04:30:31;;;;;;;0.60;0.50;;;;;;;22.80;100.00;95406.13;5073885;28;20494;-54
2022/07/29 04:33:00;;;;;;;1.00;0.80;;;;;;;22.83;100.00;95408.16;5073597;28;20433;-52
2022/07/29 04:35:30;;;;;;;1.20;1.10;;;;;;;22.40;100.00;95409.63;5073526;28;20860;-52
2022/07/29 04:38:12;;;;;;;1.17;1.07;;;;;;;22.63;100.00;95393.72;5073734;28;20885;-52
2022/07/29 04:40:44;;;;;;;0.50;0.40;;;;;;;22.83;100.00;95406.25;5073404;28;20966;-52
2022/07/29 04:43:14;;;;;;;1.30;0.63;;;;;;;22.34;100.00;95397.47;5073210;28;20916;-51
2022/07/29 04:45:43;;;;;;;0.80;0.80;;;;;;;22.18;100.00;95410.13;5073542;28;20441;-51
2022/07/29 04:48:11;;;;;;;0.87;0.87;;;;;;;22.07;100.00;95420.59;5073223;28;20516;-52
2022/07/29 04:50:41;;;;;;;2.60;0.60;;;;;;;22.14;100.00;95410.00;5073144;28;20948;-52
2022/07/29 04:53:10;;;;;;;0.80;0.80;;;;;;;22.63;100.00;95409.91;5073222;28;20869;-52
2022/07/29 04:55:38;;;;;;;1.20;0.63;;;;;;;22.77;100.00;95411.09;5072881;28;20501;-52
2022/07/29 04:58:07;;;;;;;0.60;0.50;;;;;;;22.81;100.00;95415.81;5073074;28;20515;-50
2022/07/29 05:00:36;;;;;;;1.80;0.60;;;;;;;22.51;100.00;95418.03;5072891;28;20445;-50
2022/07/29 05:03:05;;;;;;;0.53;0.53;;;;;;;22.60;100.00;95416.78;5072972;28;20832;-51
2022/07/29 05:05:33;;;;;;;1.07;0.63;;;;;;;23.11;100.00;95414.34;5072785;28;20990;-51
2022/07/29 05:08:03;;;;;;;6.23;1.50;;;;;;;23.15;100.00;95409.78;5072927;28;20417;-50
2022/07/29 05:10:32;;;;;;;1.07;1.07;;;;;;;22.60;100.00;95346.53;5073098;28;20520;-51
2022/07/29 05:13:00;;;;;;;0.50;0.40;;;;;;;23.10;100.00;95413.53;5072821;28;20512;-52
2022/07/29 05:15:29;;;;;;;1.03;0.80;;;;;;;23.25;100.00;95412.03;5072916;28;20457;-50
2022/07/29 05:17:57;;;;;;;0.80;0.57;;;;;;;23.46;100.00;95417.19;5072340;28;20460;-51
2022/07/29 05:20:28;;;;;;;1.33;0.97;;;;;;;23.68;100.00;95397.66;5072867;28;20501;-51
2022/07/29 05:22:57;;;;;;;0.50;0.30;;;;;;;23.94;100.00;95408.72;5073085;28;20910;-51
2022/07/29 05:25:28;;;;;;;0.83;0.83;;;;;;;23.56;100.00;95401.22;5072770;28;20844;-51
2022/07/29 05:28:11;;;;;;;0.40;0.40;;;;;;;23.63;100.00;95408.75;5072550;28;20433;-51
2022/07/29 05:30:40;;;;;;;0.40;0.40;;;;;;;24.08;100.00;95409.09;5072207;28;20480;-51
2022/07/29 05:33:08;;;;;;;1.07;0.97;;;;;;;23.80;100.00;95406.47;5071928;28;20469;-50
2022/07/29 05:35:57;;;;;;;0.50;0.30;;;;;;;24.18;100.00;95402.34;5071616;28;20443;-51
2022/07/29 05:38:28;;;;;;;2.30;0.60;;;;;;;24.25;100.00;95414.13;5072055;28;20483;-51
2022/07/29 05:40:59;;;;;;;0.80;0.73;;;;;;;24.60;100.00;95403.25;5072540;28;20508;-51
2022/07/29 05:43:28;;;;;;;0.80;0.57;;;;;;;24.12;100.00;95306.25;5072130;28;20521;-50
2022/07/29 05:45:57;;;;;;;1.10;1.10;;;;;;;24.55;100.00;95407.03;5072081;28;20834;-50
2022/07/29 05:48:25;;;;;;;0.50;0.43;;;;;;;25.01;100.00;95405.28;5071978;28;20456;-50
2022/07/29 05:50:54;;;;;;;0.80;0.80;;;;;;;24.76;100.00;95412.09;5072068;28;20906;-50
2022/07/29 05:53:23;;;;;;;0.80;0.67;;;;;;;24.19;100.00;95412.00;5071976;28;20461;-50
2022/07/29 05:55:52;;;;;;;1.27;1.17;;;;;;;24.62;100.00;95407.16;5072180;28;20457;-50
2022/07/29 05:58:22;;;;;;;2.67;2.13;;;;;;;24.77;100.00;95407.47;5071910;28;20468;-50
2022/07/29 06:00:50;;;;;;;1.63;0.67;;;;;;;25.30;100.00;95405.81;5071250;28;20937;-50
2022/07/29 06:03:18;;;;;;;0.60;0.60;;;;;;;25.54;100.00;95405.47;5070823;28;21044;-50
2022/07/29 06:05:47;;;;;;;0.70;0.70;;;;;;;25.29;100.00;95405.00;5072015;28;20478;-50
2022/07/29 06:08:15;;;;;;;1.60;1.50;;;;;;;25.03;100.00;95402.19;5072093;28;20461;-51
2022/07/29 06:10:45;;;;;;;4.50;0.97;;;;;;;25.10;100.00;95399.59;5072009;28;20429;-51
2022/07/29 06:13:15;;;;;;;1.90;1.30;;;;;;;24.92;100.00;95418.25;5072047;28;20516;-51
2022/07/29 06:15:45;;;;;;;1.77;1.67;;;;;;;25.37;100.00;95408.63;5072140;28;20437;-51
2022/07/29 06:18:14;;;;;;;1.03;1.03;;;;;;;25.51;100.00;95398.84;5071802;28;20782;-51
2022/07/29 06:20:42;;;;;;;1.47;1.30;;;;;;;25.37;100.00;95400.50;5072066;28;20483;-52
2022/07/29 06:23:11;;;;;;;0.90;0.90;;;;;;;25.59;100.00;95405.97;5071028;28;20424;-51
2022/07/29 06:25:41;;;;;;;1.17;1.07;;;;;;;25.99;100.00;95405.44;5071561;28;20482;-51
2022/07/29 06:28:09;;;;;;;2.17;1.80;;;;;;;25.78;100.00;95408.59;5071293;28;20465;-52
2022/07/29 06:30:37;;;;;;;1.63;0.70;;;;;;;26.23;100.00;95402.34;5071809;28;21006;-51
2022/07/29 06:33:08;;;;;;;0.83;0.83;;;;;;;26.36;100.00;95400.97;5071815;28;20464;-50
2022/07/29 06:35:38;;;;;;;1.13;1.13;;;;;;;27.26;100.00;95398.19;5072005;28;20462;-50
2022/07/29 06:38:12;;;;;;;8.93;1.37;;;;;;;27.41;100.00;95400.72;5071573;28;20421;-50
2022/07/29 06:41:02;;;;;;;4.57;1.13;;;;;;;26.72;100.00;95406.84;5071536;28;20496;-50
2022/07/29 06:43:37;;;;;;;1.37;1.03;;;;;;;27.06;100.00;95392.16;5071569;28;20434;-51
2022/07/29 06:46:19;;;;;;;1.57;1.47;;;;;;;26.92;100.00;95390.03;5071631;28;20444;-51
2022/07/29 06:48:49;;;;;;;0.90;0.70;;;;;;;27.32;100.00;95394.78;5071554;28;20925;-51
2022/07/29 06:51:19;;;;;;;0.93;0.87;;;;;;;27.88;97.52;95396.47;5071868;28;20475;-51
2022/07/29 06:53:51;;;;;;;1.17;1.17;;;;;;;27.58;98.62;95394.63;5071756;28;20433;-52
2022/07/29 06:56:28;;;;;;;1.33;1.23;;;;;;;27.39;97.80;95386.69;5071511;28;20520;-52
2022/07/29 06:58:57;;;;;;;1.73;1.63;;;;;;;27.90;98.51;95391.41;5071282;28;20433;-52
2022/07/29 07:01:25;;;;;;;1.97;1.87;;;;;;;28.47;95.20;95387.13;5071807;28;20791;-52
2022/07/29 07:03:55;;;;;;;1.73;0.80;;;;;;;28.83;90.95;95386.94;5071665;28;20433;-52
2022/07/29 07:06:24;;;;;;;1.70;1.17;;;;;;;28.32;89.14;95329.81;5071259;28;20494;-52
2022/07/29 07:08:52;;;;;;;0.90;0.70;;;;;;;29.03;87.62;95372.97;5071507;28;20476;-52
2022/07/29 07:11:21;;;;;;;2.10;0.90;;;;;;;29.13;86.07;95367.53;5071305;28;20513;-52
2022/07/29 07:13:49;;;;;;;1.33;1.00;;;;;;;29.69;86.19;95375.06;5071036;28;20472;-57
2022/07/29 07:16:18;;;;;;;1.10;1.00;;;;;;;29.49;80.30;95371.94;5070865;28;20465;-58
2022/07/29 07:18:46;;;;;;;0.70;0.60;;;;;;;30.25;79.62;95363.34;5070853;28;20567;-58
2022/07/29 07:21:16;;;;;;;2.93;1.30;;;;;;;30.47;78.19;95361.34;5070722;28;20483;-57
2022/07/29 07:23:46;;;;;;;0.93;0.83;;;;;;;30.55;79.70;95371.09;5070996;28;20460;-56
2022/07/29 07:26:15;;;;;;;1.13;1.13;;;;;;;30.11;75.52;95364.13;5071202;28;20942;-55
2022/07/29 07:28:43;;;;;;;3.27;1.40;;;;;;;30.11;74.07;95355.16;5071434;28;20416;-55
2022/07/29 07:31:12;;;;;;;2.40;1.90;;;;;;;29.47;77.64;95357.13;5071063;28;20430;-55
2022/07/29 07:33:41;;;;;;;1.17;1.03;;;;;;;30.49;74.99;95365.25;5071320;28;20905;-57
2022/07/29 07:36:09;;;;;;;2.60;1.30;;;;;;;30.73;70.55;95352.66;5070857;28;21019;-55
2022/07/29 07:38:39;;;;;;;0.80;0.80;;;;;;;31.08;71.99;95354.47;5074800;28;20433;-55
2022/07/29 07:41:07;;;;;;;1.20;1.00;;;;;;;30.74;75.19;95352.25;5074180;28;20572;-55
2022/07/29 07:43:36;;;;;;;1.83;0.90;;;;;;;31.36;71.34;95349.63;5074652;28;20501;-56
2022/07/29 07:46:04;;;;;;;0.77;0.77;;;;;;;31.39;63.24;95340.59;5074193;28;20463;-57
2022/07/29 07:48:34;;;;;;;3.10;1.90;;;;;;;31.36;68.45;95341.41;5074499;28;20514;-56
2022/07/29 07:51:03;;;;;;;1.77;1.67;;;;;;;31.58;62.52;95339.31;5074168;28;20454;-56
2022/07/29 07:53:31;;;;;;;0.67;0.63;;;;;;;32.28;59.97;95340.66;5074440;28;20439;-57
2022/07/29 07:56:02;;;;;;;2.17;2.07;;;;;;;31.78;58.01;95298.41;5073707;28;20485;-57
2022/07/29 07:58:40;;;;;;;2.60;1.60;;;;;;;31.98;60.25;95346.00;5074501;28;20467;-57
2022/07/29 08:01:09;;;;;;;1.07;0.97;;;;;;;32.47;61.22;95339.28;5074000;28;20468;-57
2022/07/29 08:03:38;;;;;;;4.57;2.47;;;;;;;32.35;60.72;95343.34;5074337;28;20479;-57
2022/07/29 08:06:07;;;;;;;1.40;0.97;;;;;;;32.06;63.41;95350.28;5074482;28;20454;-57
2022/07/29 08:08:36;;;;;;;0.90;0.90;;;;;;;32.86;64.02;95333.34;5074123;28;21011;-57
2022/07/29 08:11:06;;;;;;;0.67;0.67;;;;;;;33.45;57.58;95334.50;5074225;28;20513;-56
2022/07/29 08:13:38;;;;;;;2.97;1.30;;;;;;;32.52;56.56;95344.34;5074482;28;20442;-57
2022/07/29 08:16:16;;;;;;;2.00;1.90;;;;;;;32.20;62.81;95338.41;5073870;28;20901;-56
2022/07/29 08:18:46;;;;;;;1.00;1.00;;;;;;;33.13;61.79;95343.22;5074303;28;20553;-56
2022/07/29 08:21:15;;;;;;;1.30;1.20;;;;;;;32.43;65.72;95341.28;5073496;28;20881;-56
2022/07/29 08:23:49;;;;;;;3.63;1.63;;;;;;;32.84;57.38;95339.25;5073372;28;20897;-56
2022/07/29 08:26:29;;;;;;;1.03;1.03;;;;;;;32.25;61.96;95292.09;5074140;28;20434;-57
2022/07/29 08:28:57;;;;;;;1.97;1.87;;;;;;;33.06;58.90;95326.84;5073649;28;20537;-57
2022/07/29 08:31:25;;;;;;;1.00;0.90;;;;;;;33.35;57.01;95324.44;5073784;28;20927;-57
2022/07/29 08:33:55;;;;;;;1.40;1.30;;;;;;;33.60;56.78;95324.88;5073004;28;20474;-57
2022/07/29 08:36:25;;;;;;;0.80;0.80;;;;;;;33.36;55.37;95326.00;5073653;28;20459;-57
2022/07/29 08:38:54;;;;;;;1.17;1.07;;;;;;;33.72;54.49;95318.81;5073942;28;20496;-56
2022/07/29 08:41:23;;;;;;;0.90;0.90;;;;;;;34.05;51.68;95321.78;5073466;28;20533;-55
2022/07/29 08:43:53;;;;;;;0.83;0.83;;;;;;;34.60;50.97;95312.91;5073550;28;20467;-56
2022/07/29 08:46:22;;;;;;;1.23;0.83;;;;;;;34.28;48.58;95316.28;5073493;28;20501;-55
2022/07/29 08:48:51;;;;;;;1.73;1.63;;;;;;;34.21;45.43;95308.91;5073101;28;20421;-56
2022/07/29 08:51:22;;;;;;;1.83;1.73;;;;;;;34.47;46.31;95308.03;5073566;28;20447;-57
2022/07/29 08:53:51;;;;;;;2.60;2.40;;;;;;;34.62;45.08;95305.00;5073424;28;20520;-57
2022/07/29 08:56:20;;;;;;;0.67;0.67;;;;;;;34.32;47.24;95292.19;5073254;28;21026;-56
2022/07/29 08:58:50;;;;;;;0.80;0.70;;;;;;;34.80;48.42;95299.91;5073503;28;20461;-56
2022/07/29 09:01:25;;;;;;;0.80;0.80;;;;;;;34.89;42.57;95267.81;5072968;28;20480;-56
2022/07/29 09:04:12;;;;;;;1.80;1.13;;;;;;;35.03;43.06;95303.34;5073360;28;20437;-56
2022/07/29 09:06:45;;;;;;;1.50;1.03;;;;;;;35.22;42.07;95301.75;5073207;28;20467;-51
2022/07/29 09:09:14;;;;;;;0.80;0.77;;;;;;;35.58;41.80;95294.25;5072985;28;20933;-52
2022/07/29 09:11:43;;;;;;;0.90;0.90;;;;;;;35.22;39.95;95299.00;5072903;28;20884;-53
2022/07/29 09:14:14;;;;;;;0.77;0.73;;;;;;;36.10;40.82;95296.88;5073191;28;20269;-52
2022/07/29 09:16:52;;;;;;;1.53;1.43;;;;;;;35.54;37.18;95301.03;5072646;28;20682;-53
2022/07/29 09:19:26;;;;;;;2.00;1.27;;;;;;;35.55;36.06;95288.78;5073095;28;20806;-53
2022/07/29 09:21:59;;;;;;;0.40;0.40;;;;;;;36.43;34.96;95291.28;5072995;28;20289;-53
2022/07/29 09:24:42;;;;;;;1.07;0.97;;;;;;;36.20;34.58;95287.56;5072911;28;20194;-53
2022/07/29 09:27:18;;;;;;;1.53;1.43;;;;;;;35.87;35.08;95294.31;5072456;28;20194;-53
2022/07/29 09:29:47;;;;;;;2.67;1.23;;;;;;;36.40;35.19;95292.94;5072920;28;20595;-53
2022/07/29 09:32:16;;;;;;;0.97;0.87;;;;;;;36.38;36.82;95287.06;5072273;28;20222;-52
2022/07/29 09:34:45;;;;;;;0.90;0.77;;;;;;;37.03;35.77;95282.06;5072761;28;20269;-52
2022/07/29 09:37:27;;;;;;;1.40;1.30;;;;;;;36.79;35.27;95278.00;5072465;28;20557;-52
2022/07/29 09:39:55;;;;;;;0.70;0.70;;;;;;;37.22;34.79;95281.06;5072295;28;20194;-53
2022/07/29 09:42:33;;;;;;;2.30;1.10;;;;;;;36.88;34.95;95269.88;5072300;28;20210;-52
2022/07/29 09:45:02;;;;;;;1.70;1.60;;;;;;;37.16;35.44;95273.78;5072010;28;20186;-53
2022/07/29 09:47:44;;;;;;;0.68;0.50;;;;;;;37.44;35.18;95268.19;5072481;28;20233;-53
2022/07/29 09:50:13;;;;;;;0.93;0.60;;;;;;;37.49;36.53;95270.38;5072273;28;20201;-53
2022/07/29 09:52:49;;;;;;;0.60;0.60;;;;;;;37.39;35.29;95268.69;5072137;28;20187;-53
2022/07/29 09:55:18;;;;;;;2.88;1.83;;;;;;;37.36;36.05;95266.81;5071954;28;20658;-53
2022/07/29 09:57:47;;;;;;;2.40;2.30;;;;;;;36.90;36.93;95267.44;5072058;28;20633;-54
2022/07/29 10:00:19;;;;;;;1.38;1.27;;;;;;;36.38;34.70;95256.72;5071450;28;20644;-59
2022/07/29 10:02:49;;;;;;;0.90;0.90;;;;;;;36.19;36.28;95263.13;5072238;28;20210;-59
2022/07/29 10:05:20;;;;;;;2.08;0.98;;;;;;;36.42;31.51;95251.06;5072197;28;20195;-59
2022/07/29 10:07:51;;;;;;;1.40;1.30;;;;;;;36.70;33.37;95228.19;5071970;28;20222;-59
2022/07/29 10:10:23;;;;;;;0.60;0.60;;;;;;;37.66;32.10;95259.94;5071779;28;20194;-60
2022/07/29 10:12:54;;;;;;;1.25;1.20;;;;;;;37.40;32.06;95252.91;5071883;28;20650;-59
2022/07/29 10:15:25;;;;;;;0.85;0.85;;;;;;;37.18;31.15;95252.00;5072084;28;20557;-58
2022/07/29 10:17:56;;;;;;;1.02;0.82;;;;;;;37.28;30.85;95250.88;5071747;28;20253;-59
2022/07/29 10:20:27;;;;;;;1.88;1.60;;;;;;;37.14;31.08;95249.34;5071892;28;20191;-58
2022/07/29 10:22:56;;;;;;;1.38;0.95;;;;;;;37.38;30.30;95238.72;5071589;28;20272;-59
2022/07/29 10:25:25;;;;;;;0.57;0.57;;;;;;;38.11;28.51;95234.69;5071411;28;20226;-59
2022/07/29 10:27:55;;;;;;;1.40;1.30;;;;;;;37.72;29.37;95247.09;5071421;28;20225;-59
2022/07/29 10:30:26;;;;;;;0.68;0.68;;;;;;;37.99;29.51;95241.06;5071590;28;20222;-59
2022/07/29 10:33:27;;;;;;;0.82;0.82;;;;;;;38.68;28.78;95234.19;5071578;28;20711;-60
2022/07/29 10:36:08;;;;;;;0.80;0.80;;;;;;;37.86;27.98;95230.03;5071812;28;20272;-59
2022/07/29 10:38:53;;;;;;;0.73;0.73;;;;;;;37.57;27.98;95225.88;5071766;28;20193;-59
2022/07/29 10:41:46;;;;;;;0.60;0.60;;;;;;;38.07;27.79;95201.63;5071484;28;20225;-58
2022/07/29 10:44:18;;;;;;;0.47;0.38;;;;;;;38.35;27.77;95205.38;5071385;28;20182;-59
2022/07/29 10:46:53;;;;;;;1.50;1.00;;;;;;;37.75;28.27;95218.53;5071736;28;20243;-59
2022/07/29 10:49:24;;;;;;;1.38;1.27;;;;;;;37.30;28.16;95221.59;5071635;28;20196;-58
2022/07/29 10:52:05;;;;;;;1.45;1.33;;;;;;;37.23;28.03;95219.06;5071816;28;20204;-58
2022/07/29 10:54:46;;;;;;;0.68;0.68;;;;;;;37.65;27.04;95218.91;5071392;28;20226;-59
2022/07/29 10:57:37;;;;;;;0.68;0.68;;;;;;;37.96;28.20;95203.22;5071462;28;20195;-59
2022/07/29 11:00:33;;;;;;;1.35;1.25;;;;;;;37.27;27.33;95208.66;5070526;28;20186;-59
2022/07/29 11:03:01;;;;;;;0.68;0.68;;;;;;;37.21;27.05;95209.66;5071273;28;20254;-58
2022/07/29 11:05:57;;;;;;;0.98;0.55;;;;;;;37.50;26.45;95196.47;5071159;28;20235;-58
2022/07/29 11:08:27;;;;;;;0.50;0.50;;;;;;;38.28;24.94;95183.44;5071134;28;20205;-59
2022/07/29 11:11:31;;;;;;;0.93;0.93;;;;;;;38.60;25.32;95183.06;5072578;28;20290;-59
2022/07/29 11:14:02;;;;;;;1.13;1.13;;;;;;;37.66;26.47;95190.00;5073398;28;20210;-59
2022/07/29 11:17:00;;;;;;;0.57;0.57;;;;;;;38.89;25.93;95193.09;5075227;28;20240;-59
2022/07/29 11:19:29;;;;;;;0.50;0.50;;;;;;;38.51;23.81;95152.53;5075328;28;20278;-53
2022/07/29 11:21:59;;;;;;;0.60;0.60;;;;;;;39.10;24.72;95184.69;5075205;28;20250;-54
2022/07/29 11:24:32;;;;;;;0.95;0.60;;;;;;;39.31;24.08;95152.56;5074828;28;20230;-54
2022/07/29 11:27:21;;;;;;;2.22;1.00;;;;;;;37.82;22.37;95189.84;5074529;28;20652;-54
2022/07/29 11:29:52;;;;;;;0.40;0.35;;;;;;;38.59;22.16;95184.28;5074616;28;20638;-55
2022/07/29 11:32:23;;;;;;;0.52;0.52;;;;;;;38.87;21.80;95181.66;5075093;28;20227;-54
2022/07/29 11:35:13;;;;;;;0.60;0.57;;;;;;;40.00;21.65;95180.56;5074668;28;20609;-54
2022/07/29 11:37:47;;;;;;;0.40;0.30;;;;;;;40.41;20.57;95177.13;5074484;28;20190;-54
2022/07/29 11:40:25;;;;;;;0.40;0.30;;;;;;;39.59;20.62;95172.81;5074851;28;20193;-53
2022/07/29 11:42:53;;;;;;;0.30;0.30;;;;;;;40.25;22.52;95171.16;5074229;28;20265;-54
2022/07/29 11:45:32;;;;;;;0.70;0.70;;;;;;;38.98;23.02;95179.25;5074363;28;20204;-56
2022/07/29 11:48:21;;;;;;;0.60;0.60;;;;;;;37.87;23.55;95187.31;5074444;28;20201;-54
2022/07/29 11:50:58;;;;;;;0.63;0.60;;;;;;;38.00;23.76;95179.72;5074350;28;20202;-54
2022/07/29 11:53:28;;;;;;;0.45;0.45;;;;;;;37.60;23.74;95175.97;5073990;28;20608;-54
2022/07/29 11:56:01;;;;;;;2.50;0.80;;;;;;;37.93;24.88;95171.66;5074805;28;20191;-54